Latest Coastal Weather Observations for Groote Eylandt Airport

IDD60701

Issued at 1:51 pm CST Saturday 20 December 2014 (issued every 10 minutes, with the page automatically refreshed every 10 minutes)

About coastal observations | Map of coastal stations | Coastal observations for NT | Marine services | Other Formats
Station Details ID: 014518 Name: GROOTE EYLANDT AIRPORT Lat: -13.97 Lon: 136.46 Height: 13.7 m
Data from the previous 72 hours. | See also: Recent months at Groote Eylandt Airport
Date/Time
CST
Temp

°C
Wind Pressure Rain
since 9am
mm
Weather Cloud Vis
km
Sea
Height
m
Swell
Dir
 
Speed
knots
Gust
knots
hPa Trend Height
m
Period
s
Dir
20/01:44pm 27.4 ENE 16 26 1007.9 - 8.4 - Partly cloudy 2 - - - -
20/01:39pm 28.4 ENE 15 26 1007.9 - 3.6 - Cloudy 5 - - - -
20/01:33pm 30.9 W 6 21 1007.4 - 0.0 - Partly cloudy 10 - - - -
20/01:30pm 33.9 WSW 4 8 1007.1 - 0.0 - Partly cloudy 10 - - - -
20/01:00pm 34.8 W 8 11 1007.0 - 0.0 - Partly cloudy 10 - - - -
20/12:30pm 34.9 W 5 8 1007.6 - 0.0 - - 10 - - - -
20/12:00pm 34.7 W 5 10 1008.0 - 0.0 - - 10 - - - -
20/11:30am 33.4 WNW 7 11 1008.2 - 0.0 - - 10 - - - -
20/11:00am 32.7 WNW 8 12 1008.7 - 0.0 - - 10 - - - -
20/10:30am 32.2 WNW 7 11 1009.0 - 0.0 - - 10 - - - -
20/10:00am 31.6 WNW 7 11 1009.4 - 0.0 - - 10 - - - -
20/09:30am 31.3 W 7 11 1009.6 - 0.0 - Partly cloudy 10 - - - -
20/09:00am 30.8 WNW 9 13 1009.8 - 19.0 - Mostly clear 10 - - - -
20/08:30am 30.5 WNW 9 12 1009.7 - 19.0 - Partly cloudy 10 - - - -
20/08:00am 30.4 NW 9 13 1009.8 - 19.0 - Partly cloudy 10 - - - -
20/07:30am 29.9 NW 9 11 1009.7 - 19.0 - Partly cloudy 10 - - - -
20/07:00am 29.7 NW 9 11 1009.4 - 19.0 - Partly cloudy 10 - - - -
20/06:30am 26.5 CALM 0 0 1009.1 - 19.0 - Partly cloudy 10 - - - -
20/06:00am 25.8 CALM 0 0 1008.7 - 19.0 - Mostly cloudy 10 - - - -
20/05:30am 26.0 CALM 0 0 1008.0 - 19.0 - Partly cloudy 10 - - - -
20/05:00am 26.4 CALM 0 0 1007.7 - 19.0 - Partly cloudy 10 - - - -
20/04:30am 26.2 CALM 0 0 1007.7 - 19.0 - Partly cloudy 10 - - - -
20/04:00am 26.2 CALM 0 0 1007.6 - 19.0 - - 10 - - - -
20/03:30am 26.5 CALM 0 0 1007.5 - 19.0 - - 10 - - - -
20/03:00am 27.0 NNE 2 4 1007.7 - 19.0 - - 10 - - - -
20/02:30am 26.6 CALM 0 0 1008.0 - 19.0 - - 10 - - - -
20/02:00am 27.2 ENE 1 4 1007.9 - 19.0 - - 10 - - - -
20/01:30am 27.0 E 1 3 1008.2 - 19.0 - - 10 - - - -
20/01:00am 27.7 NNE 4 5 1008.4 - 19.0 - - 10 - - - -
20/12:30am 27.3 ENE 1 3 1009.0 - 19.0 - - 10 - - - -
20/12:00am 27.5 E 4 5 1009.5 - 19.0 - - 10 - - - -
 
Date/Time
CST
Temp

°C
Wind Pressure Rain
since 9am
mm
Weather Cloud Vis
km
Sea
Height
m
Swell
Dir
 
Speed
knots
Gust
knots
hPa Trend Height
m
Period
s
Dir
19/11:30pm 28.2 ENE 5 5 1009.6 - 19.0 - - 10 - - - -
19/11:00pm 28.2 ENE 3 5 1009.8 - 19.0 - - 10 - - - -
19/10:30pm 28.3 ENE 4 5 1010.0 - 19.0 - - 10 - - - -
19/10:00pm 28.6 NE 6 7 1009.6 - 19.0 - - 10 - - - -
19/09:30pm 28.9 NE 6 8 1009.6 - 19.0 - - 10 - - - -
19/09:00pm 29.1 NE 4 5 1009.7 - 19.0 - - 10 - - - -
19/08:30pm 29.5 NE 4 5 1009.4 - 19.0 - - 10 - - - -
19/08:00pm 29.9 ENE 6 7 1008.8 - 19.0 - - 10 - - - -
19/07:30pm 30.4 ENE 6 7 1008.3 - 19.0 - - 10 - - - -
19/07:00pm 31.3 ENE 5 7 1008.1 - 19.0 - - 10 - - - -
19/06:30pm 32.0 ENE 6 8 1007.6 - 19.0 - - 10 - - - -
19/06:00pm 32.7 ENE 7 8 1007.3 - 19.0 - - 10 - - - -
19/05:30pm 33.2 ENE 7 9 1006.8 - 19.0 - Partly cloudy 10 - - - -
19/05:00pm 33.3 ESE 5 7 1006.8 - 19.0 - Partly cloudy 10 - - - -
19/04:30pm 32.4 ESE 5 7 1006.7 - 19.0 - Partly cloudy 10 - - - -
19/04:00pm 31.0 ENE 9 15 1006.8 - 19.0 - Partly cloudy 10 - - - -
19/03:30pm 33.9 N 4 6 1006.9 - 18.2 - Partly cloudy 10 - - - -
19/03:00pm 33.8 S 4 6 1007.4 - 18.2 - - 10 - - - -
19/02:30pm 33.0 SE 5 7 1008.0 - 18.2 - Partly cloudy 10 - - - -
19/02:00pm 31.8 ENE 5 6 1008.5 - 18.2 - Partly cloudy 10 - - - -
19/01:30pm 29.8 WSW 3 5 1009.1 - 18.2 - Partly cloudy 10 - - - -
19/01:21pm 28.4 WSW 3 6 1009.2 - 18.2 - Partly cloudy 10 - - - -
19/01:00pm 27.7 SSW 6 11 1009.8 - 17.6 - Partly cloudy 0.6 - - - -
19/12:53pm 27.9 SE 8 12 1009.9 - 10.0 - Partly cloudy 4 - - - -
19/12:50pm 28.4 SE 7 12 1009.6 - 4.0 - Partly cloudy 10 - - - -
19/12:30pm 33.9 NW 6 11 1009.3 - 0.0 - Partly cloudy 10 - - - -
19/12:00pm 34.1 WNW 5 9 1009.6 - 0.0 - Mostly clear 10 - - - -
19/11:30am 33.4 WNW 8 12 1010.4 - 0.0 - Partly cloudy 10 - - - -
19/11:00am 32.7 W 6 9 1010.7 - 0.0 - Partly cloudy 10 - - - -
19/10:30am 33.1 WSW 5 8 1010.8 - 0.0 - Partly cloudy 10 - - - -
19/10:00am 33.0 WNW 5 9 1010.9 - 0.0 - Partly cloudy 10 - - - -
19/09:30am 32.0 NNW 6 9 1011.1 - 0.0 - Partly cloudy 10 - - - -
19/09:00am 31.9 NNW 7 11 1010.9 - 0.0 - Mostly clear 10 - - - -
19/08:30am 31.4 NNW 9 11 1010.8 - 0.0 - Partly cloudy 10 - - - -
19/08:00am 30.5 NNW 8 11 1010.5 - 0.0 - Partly cloudy 10 - - - -
19/07:30am 30.4 NNW 8 11 1010.2 - 0.0 - - 10 - - - -
19/07:00am 29.9 NNW 7 10 1010.1 - 0.0 - - 10 - - - -
19/06:30am 29.1 NNW 7 10 1009.7 - 0.0 - - 10 - - - -
19/06:00am 29.0 NNW 6 8 1009.6 - 0.0 - Partly cloudy 10 - - - -
19/05:30am 28.7 N 4 6 1009.0 - 0.0 - Partly cloudy 10 - - - -
19/05:00am 28.6 NNW 5 6 1008.6 - 0.0 - Partly cloudy 10 - - - -
19/04:30am 28.6 NNW 5 6 1008.4 - 0.0 - Partly cloudy 10 - - - -
19/04:00am 28.6 N 5 8 1008.3 - 0.0 - - 10 - - - -
19/03:30am 29.0 N 6 8 1008.2 - 0.0 - - 10 - - - -
19/03:00am 29.0 N 7 9 1008.3 - 0.0 - - 10 - - - -
19/02:30am 29.1 N 7 10 1008.3 - 0.0 - - 10 - - - -
19/02:00am 29.2 N 7 9 1008.3 - 0.0 - - 10 - - - -
19/01:30am 29.4 N 7 10 1008.3 - 0.0 - - 10 - - - -
19/01:00am 29.3 NNE 5 8 1008.5 - 0.0 - Partly cloudy 10 - - - -
19/12:30am 29.0 NE 5 8 1008.9 - 0.0 - - 10 - - - -
19/12:00am 29.2 NE 5 7 1009.2 - 0.0 - - 10 - - - -
 
Date/Time
CST
Temp

°C
Wind Pressure Rain
since 9am
mm
Weather Cloud Vis
km
Sea
Height
m
Swell
Dir
 
Speed
knots
Gust
knots
hPa Trend Height
m
Period
s
Dir
18/11:30pm 29.3 NE 4 6 1009.3 - 0.0 - - 10 - - - -
18/11:00pm 29.5 NE 7 10 1009.1 - 0.0 - - 10 - - - -
18/10:30pm 29.6 NE 7 9 1009.0 - 0.0 - - 10 - - - -
18/10:00pm 29.7 NE 5 8 1008.8 - 0.0 - - 10 - - - -
18/09:30pm 29.8 NE 5 7 1008.7 - 0.0 - - 10 - - - -
18/09:00pm 30.2 ENE 8 10 1008.2 - 0.0 - - 10 - - - -
18/08:30pm 30.6 ENE 9 13 1008.0 - 0.0 - - 10 - - - -
18/08:00pm 30.9 ENE 7 10 1007.7 - 0.0 - - 10 - - - -
18/07:30pm 31.5 ENE 8 13 1007.4 - 0.0 - - 10 - - - -
18/07:00pm 32.7 ENE 10 14 1006.9 - 0.0 - - 10 - - - -
18/06:30pm 34.3 ENE 8 10 1006.5 - 0.0 - - 10 - - - -
18/06:00pm 35.2 NE 8 11 1005.8 - 0.0 - - 10 - - - -
18/05:30pm 36.0 ENE 7 12 1005.8 - 0.0 - - 10 - - - -
18/05:00pm 37.2 NE 7 10 1005.8 - 0.0 - - 10 - - - -
18/04:30pm 36.6 E 5 8 1006.0 - 0.0 - Partly cloudy 10 - - - -
18/04:00pm 35.7 ENE 5 7 1006.3 - 0.0 - Partly cloudy 10 - - - -
18/03:30pm 35.7 S 5 9 1006.7 - 0.0 - Partly cloudy 10 - - - -
18/03:00pm 35.9 N 5 7 1006.9 - 0.0 - - 10 - - - -
18/02:30pm 36.9 NNW 10 14 1007.2 - 0.0 - - 10 - - - -
18/02:00pm 36.3 NW 12 16 1007.5 - 0.0 - - 10 - - - -
18/01:30pm 36.2 NW 12 16 1007.8 - 0.0 - - 10 - - - -
18/01:00pm 35.9 WNW 10 14 1008.0 - 0.0 - - 10 - - - -
18/12:30pm 35.7 NW 10 15 1008.4 - 0.0 - - 10 - - - -
18/12:00pm 34.7 N 8 15 1008.6 - 0.0 - - 10 - - - -
18/11:30am 34.3 NNW 7 13 1009.2 - 0.0 - Partly cloudy 10 - - - -
18/11:00am 34.4 NW 8 13 1009.6 - 0.0 - Partly cloudy 10 - - - -
18/10:30am 33.9 NW 7 12 1010.0 - 0.0 - - 10 - - - -
18/10:00am 32.9 NNW 7 11 1009.9 - 0.0 - Partly cloudy 10 - - - -
18/09:30am 32.2 NNW 9 13 1009.7 - 0.0 - Partly cloudy 10 - - - -
18/09:00am 31.9 NNW 8 12 1009.7 - 0.0 - Partly cloudy 10 - - - -
18/08:30am 31.6 NNE 7 10 1009.8 - 0.0 - Partly cloudy 10 - - - -
18/08:00am 30.8 N 8 11 1009.6 - 0.0 - Partly cloudy 10 - - - -
18/07:30am 30.4 N 7 9 1009.4 - 0.0 - Partly cloudy 10 - - - -
18/07:00am 29.7 NE 4 6 1009.1 - 0.0 - Partly cloudy 10 - - - -
18/06:30am 28.9 NNE 4 7 1008.4 - 0.0 - Partly cloudy 10 - - - -
18/06:00am 28.8 NW 3 4 1008.0 - 0.0 - - 10 - - - -
18/05:30am 29.0 N 5 7 1007.4 - 0.0 - - 10 - - - -
18/05:00am 29.0 N 4 6 1007.3 - 0.0 - Partly cloudy 10 - - - -
18/04:30am 29.2 NNW 4 5 1007.2 - 0.0 - Partly cloudy 10 - - - -
18/04:00am 29.3 NNW 6 8 1007.0 - 0.0 - Partly cloudy 10 - - - -
18/03:30am 29.3 N 7 9 1006.6 - 0.0 - - 10 - - - -
18/03:00am 29.6 N 7 9 1006.3 - 0.0 - - 10 - - - -
18/02:30am 29.8 N 7 11 1006.3 - 0.0 - - 10 - - - -
18/02:00am 29.6 N 5 7 1006.5 - 0.0 - - 10 - - - -
18/01:30am 29.7 N 6 8 1006.8 - 0.0 - - 10 - - - -
18/01:00am 30.0 N 6 9 1007.4 - 0.0 - - 10 - - - -
18/12:30am 30.1 N 6 8 1007.7 - 0.0 - - 10 - - - -
18/12:00am 30.2 N 6 8 1008.3 - 0.0 - - 10 - - - -
 
Date/Time
CST
Temp

°C
Wind Pressure Rain
since 9am
mm
Weather Cloud Vis
km
Sea
Height
m
Swell
Dir
 
Speed
knots
Gust
knots
hPa Trend Height
m
Period
s
Dir
17/11:30pm 30.3 NNE 9 12 1008.6 - 0.0 - - 10 - - - -
17/11:00pm 30.1 NE 6 8 1008.7 - 0.0 - - 10 - - - -
17/10:30pm 30.1 NE 7 11 1008.6 - 0.0 - - 10 - - - -
17/10:00pm 30.3 NE 7 10 1008.1 - 0.0 - - 10 - - - -
17/09:30pm 30.3 NE 7 9 1007.8 - 0.0 - - 10 - - - -
17/09:00pm 30.4 NE 7 10 1007.1 - 0.0 - - 10 - - - -
17/08:30pm 30.6 ENE 7 9 1006.5 - 0.0 - - 10 - - - -
17/08:00pm 30.5 NE 7 10 1005.4 - 0.0 - - 10 - - - -
17/07:30pm 31.2 NE 7 9 1005.1 - 0.0 - - 10 - - - -
17/07:00pm 31.5 NE 8 13 1004.6 - 0.0 - - 10 - - - -
17/06:30pm 32.5 NE 7 11 1004.6 - 0.0 - - 10 - - - -
17/06:00pm 33.6 NNE 9 15 1004.2 - 0.0 - - 10 - - - -
17/05:30pm 35.3 NNE 9 13 1004.0 - 0.0 - - 10 - - - -
17/05:00pm 36.7 NE 8 11 1003.6 - 0.0 - - 10 - - - -
17/04:30pm 36.7 NE 8 10 1003.5 - 0.0 - - 10 - - - -
17/04:00pm 37.0 NNE 8 12 1003.7 - 0.0 - - 10 - - - -
17/03:30pm 37.2 NE 7 11 1003.8 - 0.0 - - 10 - - - -
17/03:00pm 36.8 NNW 7 11 1004.4 - 0.0 - - 10 - - - -
17/02:30pm 37.1 N 7 11 1004.9 - 0.0 - - 10 - - - -
17/02:00pm 36.6 NNW 7 13 1005.4 - 0.0 - - 10 - - - -

Other Formats:

Comma delimited format used in spreadsheet applications
http://www.bom.gov.au/fwo/IDD60701/IDD60701.94153.axf

JavaScript Object Notation format (JSON) in row-major order
http://www.bom.gov.au/fwo/IDD60701/IDD60701.94153.json